createdAt,value
2019-01-05T00:00:08.300Z,4.82
2019-01-05T00:01:08.284Z,4.85
2019-01-05T00:02:08.265Z,4.82
2019-01-05T00:03:08.262Z,4.88
2019-01-05T00:04:08.251Z,4.94
2019-01-05T00:05:08.238Z,4.94
2019-01-05T00:06:08.228Z,4.86
2019-01-05T00:07:08.216Z,4.85
2019-01-05T00:08:08.207Z,4.89
2019-01-05T00:09:08.197Z,4.94
2019-01-05T00:10:08.188Z,4.97
2019-01-05T00:11:08.179Z,4.96
2019-01-05T00:12:08.165Z,4.94
2019-01-05T00:13:08.155Z,4.89
2019-01-05T00:14:08.144Z,5.04
2019-01-05T00:15:08.131Z,5.03
2019-01-05T00:16:08.122Z,4.97
2019-01-05T00:17:08.111Z,5.04
2019-01-05T00:18:08.095Z,4.97
2019-01-05T00:19:08.088Z,5.03
2019-01-05T00:20:08.083Z,5.04
2019-01-05T00:21:08.064Z,5.03
2019-01-05T00:22:08.052Z,4.97
2019-01-05T00:23:08.064Z,4.99
2019-01-05T00:24:08.034Z,5.04
2019-01-05T00:25:08.022Z,5.03
2019-01-05T00:26:08.021Z,4.99
2019-01-05T00:27:07.997Z,5.00
2019-01-05T00:28:07.991Z,5.07
2019-01-05T00:29:07.978Z,4.99
2019-01-05T00:30:07.964Z,5.06
2019-01-05T00:31:07.954Z,5.17
2019-01-05T00:32:07.948Z,5.12
2019-01-05T00:33:07.946Z,5.18
2019-01-05T00:34:07.931Z,5.12
2019-01-05T00:35:07.916Z,5.17
2019-01-05T00:36:07.922Z,5.10
2019-01-05T00:37:07.893Z,5.13
2019-01-05T00:38:07.889Z,5.17
2019-01-05T00:39:07.879Z,5.27
2019-01-05T00:40:07.863Z,5.09
2019-01-05T00:41:07.851Z,5.13
2019-01-05T00:42:07.838Z,5.18
2019-01-05T00:43:07.829Z,5.20
2019-01-05T00:44:07.819Z,5.18
2019-01-05T00:45:07.814Z,5.15
2019-01-05T00:46:07.818Z,5.22
2019-01-05T00:47:07.789Z,5.20
2019-01-05T00:48:07.784Z,5.17
2019-01-05T00:49:07.769Z,5.17
2019-01-05T00:50:07.757Z,5.21
2019-01-05T00:51:07.748Z,5.22
2019-01-05T00:52:07.736Z,5.18
2019-01-05T00:53:07.736Z,5.20
2019-01-05T00:54:07.713Z,5.18
2019-01-05T00:55:07.706Z,5.21
2019-01-05T00:56:07.692Z,5.24
2019-01-05T00:57:07.683Z,5.22
2019-01-05T00:58:07.670Z,5.21
2019-01-05T00:59:07.662Z,5.18
2019-01-05T01:00:07.645Z,5.25
2019-01-05T01:01:07.641Z,5.22
2019-01-05T01:02:07.625Z,5.20
2019-01-05T01:03:07.615Z,5.25
2019-01-05T01:04:07.602Z,5.25
2019-01-05T01:05:07.590Z,5.21
2019-01-05T01:06:07.631Z,5.13
2019-01-05T01:07:07.604Z,5.27
2019-01-05T01:08:07.563Z,5.24
2019-01-05T01:09:07.586Z,5.22
2019-01-05T01:10:07.544Z,5.24
2019-01-05T01:11:07.556Z,5.24
2019-01-05T01:12:07.529Z,5.15
2019-01-05T01:13:07.508Z,5.15
2019-01-05T01:14:07.501Z,5.18
2019-01-05T01:15:07.496Z,5.20
2019-01-05T01:16:07.481Z,5.22
2019-01-05T01:17:07.466Z,5.25
2019-01-05T01:18:07.455Z,5.25
2019-01-05T01:19:07.446Z,5.31
2019-01-05T01:20:07.432Z,5.39
2019-01-05T01:21:07.424Z,5.35
2019-01-05T01:22:07.425Z,5.27
2019-01-05T01:23:07.406Z,5.30
2019-01-05T01:24:07.395Z,5.40
2019-01-05T01:25:07.385Z,5.43
2019-01-05T01:26:07.374Z,5.48
2019-01-05T01:27:07.360Z,5.28
2019-01-05T01:28:07.352Z,5.40
2019-01-05T01:29:07.336Z,5.31
2019-01-05T01:30:07.332Z,5.48
2019-01-05T01:31:07.324Z,5.39
2019-01-05T01:32:07.343Z,5.42
2019-01-05T01:33:07.302Z,5.46
2019-01-05T01:34:07.295Z,5.46
2019-01-05T01:35:07.290Z,5.38
2019-01-05T01:36:07.267Z,5.46
2019-01-05T01:37:07.260Z,5.49
2019-01-05T01:38:07.245Z,5.48
2019-01-05T01:39:07.229Z,5.43
2019-01-05T01:40:07.227Z,5.49
2019-01-05T01:41:07.212Z,5.58
2019-01-05T01:42:07.202Z,5.56
2019-01-05T01:43:07.211Z,5.51
2019-01-05T01:44:07.181Z,5.48
2019-01-05T01:45:07.186Z,5.49
2019-01-05T01:46:07.161Z,5.51
2019-01-05T01:47:07.148Z,5.54
2019-01-05T01:48:07.136Z,5.51
2019-01-05T01:49:07.136Z,5.51
2019-01-05T01:50:07.119Z,5.51
2019-01-05T01:51:07.111Z,5.54
2019-01-05T01:52:07.098Z,5.48
2019-01-05T01:53:07.085Z,5.57
2019-01-05T01:54:07.076Z,5.57
2019-01-05T01:55:07.079Z,5.58
2019-01-05T01:56:07.059Z,5.58
2019-01-05T01:57:07.046Z,5.56
2019-01-05T01:58:07.061Z,5.56
2019-01-05T01:59:07.022Z,5.43
2019-01-05T02:00:07.016Z,5.58
2019-01-05T02:01:07.003Z,5.54
2019-01-05T02:02:06.989Z,5.45
2019-01-05T02:03:06.981Z,5.54
2019-01-05T02:04:06.969Z,5.56
2019-01-05T02:05:06.966Z,5.65
2019-01-05T02:06:06.943Z,5.63
2019-01-05T02:07:06.937Z,5.56
2019-01-05T02:08:06.944Z,5.65
2019-01-05T02:09:06.915Z,5.57
2019-01-05T02:10:06.906Z,5.63
2019-01-05T02:11:06.896Z,5.64
2019-01-05T02:12:06.895Z,5.67
2019-01-05T02:13:06.878Z,5.65
2019-01-05T02:14:06.861Z,5.56
2019-01-05T02:15:06.854Z,5.61
2019-01-05T02:16:06.850Z,5.58
2019-01-05T02:17:06.833Z,5.63
2019-01-05T02:18:06.824Z,5.64
2019-01-05T02:19:06.810Z,5.64
2019-01-05T02:20:06.802Z,5.67
2019-01-05T02:21:06.795Z,5.71
2019-01-05T02:22:06.784Z,5.65
2019-01-05T02:23:06.767Z,5.63
2019-01-05T02:24:06.768Z,5.61
2019-01-05T02:25:06.751Z,5.68
2019-01-05T02:26:06.735Z,5.67
2019-01-05T02:27:06.733Z,5.65
2019-01-05T02:28:06.716Z,5.67
2019-01-05T02:29:06.706Z,5.64
2019-01-05T02:30:06.706Z,5.64
2019-01-05T02:31:06.713Z,5.63
2019-01-05T02:32:06.679Z,5.60
2019-01-05T02:33:06.671Z,5.61
2019-01-05T02:34:06.654Z,5.68
2019-01-05T02:35:06.638Z,5.61
2019-01-05T02:36:06.635Z,5.63
2019-01-05T02:37:06.620Z,5.61
2019-01-05T02:38:06.612Z,5.64
2019-01-05T02:39:06.598Z,5.64
2019-01-05T02:40:06.589Z,5.61
2019-01-05T02:41:06.579Z,5.67
2019-01-05T02:42:06.578Z,5.75
2019-01-05T02:43:06.558Z,5.74
2019-01-05T02:44:06.561Z,5.75
2019-01-05T02:45:06.561Z,5.72
2019-01-05T02:46:06.533Z,5.68
2019-01-05T02:47:06.516Z,5.64
2019-01-05T02:48:06.506Z,5.72
2019-01-05T02:49:06.502Z,5.74
2019-01-05T02:50:06.485Z,5.74
2019-01-05T02:51:06.478Z,5.78
2019-01-05T02:52:06.482Z,5.79
2019-01-05T02:53:06.455Z,5.79
2019-01-05T02:54:06.455Z,5.76
2019-01-05T02:55:06.432Z,5.81
2019-01-05T02:56:06.416Z,5.72
2019-01-05T02:57:06.408Z,5.74
2019-01-05T02:58:06.401Z,5.76
2019-01-05T02:59:06.394Z,5.75
2019-01-05T03:00:06.375Z,5.75
2019-01-05T03:01:06.368Z,5.79
2019-01-05T03:02:06.371Z,5.86
2019-01-05T03:03:06.346Z,5.83
2019-01-05T03:04:06.338Z,5.75
2019-01-05T03:05:06.326Z,5.79
2019-01-05T03:06:06.331Z,5.79
2019-01-05T03:07:06.327Z,5.79
2019-01-05T03:08:06.294Z,5.79
2019-01-05T03:09:06.291Z,5.78
2019-01-05T03:10:06.270Z,5.76
2019-01-05T03:11:06.261Z,5.78
2019-01-05T03:12:06.256Z,5.78
2019-01-05T03:13:06.243Z,5.86
2019-01-05T03:14:06.230Z,5.76
2019-01-05T03:15:06.220Z,5.81
2019-01-05T03:16:06.210Z,5.93
2019-01-05T03:17:06.222Z,5.91
2019-01-05T03:18:06.186Z,5.85
2019-01-05T03:19:06.184Z,5.93
2019-01-05T03:20:06.168Z,5.85
2019-01-05T03:21:06.161Z,5.89
2019-01-05T03:22:06.144Z,5.97
2019-01-05T03:23:06.141Z,5.97
2019-01-05T03:24:06.120Z,5.90
2019-01-05T03:25:06.116Z,6.01
2019-01-05T03:26:06.107Z,6.00
2019-01-05T03:27:06.093Z,6.01
2019-01-05T03:28:06.085Z,6.03
2019-01-05T03:29:06.075Z,6.03
2019-01-05T03:30:06.072Z,5.97
2019-01-05T03:31:06.088Z,6.06
2019-01-05T03:32:06.045Z,6.11
2019-01-05T03:33:06.035Z,6.03
2019-01-05T03:34:06.018Z,6.04
2019-01-05T03:35:06.017Z,6.09
2019-01-05T03:36:06.001Z,6.06
2019-01-05T03:37:05.989Z,6.06
2019-01-05T03:38:05.975Z,6.17
2019-01-05T03:39:05.970Z,6.18
2019-01-05T03:40:05.955Z,6.14
2019-01-05T03:41:05.947Z,6.21
2019-01-05T03:42:05.938Z,6.22
2019-01-05T03:43:05.922Z,6.11
2019-01-05T03:44:05.914Z,6.14
2019-01-05T03:45:05.904Z,6.15
2019-01-05T03:46:05.896Z,6.22
2019-01-05T03:47:05.880Z,6.19
2019-01-05T03:48:05.867Z,6.21
2019-01-05T03:49:05.859Z,6.27
2019-01-05T03:50:05.854Z,6.19
2019-01-05T03:51:05.838Z,6.19
2019-01-05T03:52:05.824Z,6.21
2019-01-05T03:53:05.826Z,6.25
2019-01-05T03:54:05.815Z,6.19
2019-01-05T03:55:05.801Z,6.25
2019-01-05T03:56:05.787Z,6.28
2019-01-05T03:57:05.774Z,6.27
2019-01-05T03:58:05.767Z,6.22
2019-01-05T03:59:05.747Z,6.27
2019-01-05T04:00:05.750Z,6.34
2019-01-05T04:01:05.731Z,6.30
2019-01-05T04:02:05.723Z,6.33
2019-01-05T04:03:05.712Z,6.38
2019-01-05T04:04:05.697Z,6.37
2019-01-05T04:05:05.690Z,6.36
2019-01-05T04:06:05.684Z,6.31
2019-01-05T04:07:05.667Z,6.31
2019-01-05T04:08:05.661Z,6.36
2019-01-05T04:09:05.652Z,6.34
2019-01-05T04:10:05.639Z,6.36
2019-01-05T04:11:05.642Z,6.37
2019-01-05T04:12:05.617Z,6.31
2019-01-05T04:13:05.612Z,6.31
2019-01-05T04:14:05.599Z,6.36
2019-01-05T04:15:05.586Z,6.34
2019-01-05T04:16:05.586Z,6.31
2019-01-05T04:17:05.570Z,6.36
2019-01-05T04:18:05.559Z,6.37
2019-01-05T04:19:05.545Z,6.31
2019-01-05T04:20:05.534Z,6.36
2019-01-05T04:21:05.527Z,6.37
2019-01-05T04:22:05.510Z,6.40
2019-01-05T04:23:05.498Z,6.28
2019-01-05T04:24:05.492Z,6.37
2019-01-05T04:25:05.480Z,6.48
2019-01-05T04:26:05.472Z,6.37
2019-01-05T04:27:05.454Z,6.37
2019-01-05T04:28:05.451Z,6.41
2019-01-05T04:29:05.443Z,6.38
2019-01-05T04:30:05.425Z,6.43
2019-01-05T04:31:05.413Z,6.51
2019-01-05T04:32:05.404Z,6.46
2019-01-05T04:33:05.403Z,6.41
2019-01-05T04:34:05.390Z,6.48
2019-01-05T04:35:05.373Z,6.43
2019-01-05T04:36:05.358Z,6.48
2019-01-05T04:37:05.350Z,6.41
2019-01-05T04:38:05.339Z,6.44
2019-01-05T04:39:05.354Z,6.36
2019-01-05T04:40:05.320Z,6.41
2019-01-05T04:41:05.315Z,6.40
2019-01-05T04:42:05.305Z,6.37
2019-01-05T04:43:05.283Z,6.52
2019-01-05T04:44:05.278Z,6.49
2019-01-05T04:45:05.263Z,6.52
2019-01-05T04:46:05.254Z,6.51
2019-01-05T04:47:05.245Z,6.44
2019-01-05T04:48:05.231Z,6.56
2019-01-05T04:49:05.222Z,6.49
2019-01-05T04:50:05.213Z,6.58
2019-01-05T04:51:05.202Z,6.43
2019-01-05T04:52:05.212Z,6.44
2019-01-05T04:53:05.181Z,6.54
2019-01-05T04:54:05.168Z,6.55
2019-01-05T04:55:05.157Z,6.54
2019-01-05T04:56:05.149Z,6.55
2019-01-05T04:57:05.137Z,6.59
2019-01-05T04:58:05.128Z,6.49
2019-01-05T04:59:05.118Z,6.52
2019-01-05T05:00:05.105Z,6.54
2019-01-05T05:01:05.092Z,6.64
2019-01-05T05:02:05.099Z,6.55
2019-01-05T05:03:05.081Z,6.61
2019-01-05T05:04:05.057Z,6.55
2019-01-05T05:05:05.046Z,6.56
2019-01-05T05:06:05.040Z,6.56
2019-01-05T05:07:05.025Z,6.61
2019-01-05T05:08:05.018Z,6.59
2019-01-05T05:09:05.005Z,6.54
2019-01-05T05:10:04.994Z,6.64
2019-01-05T05:11:04.984Z,6.55
2019-01-05T05:12:04.973Z,6.54
2019-01-05T05:13:04.966Z,6.59
2019-01-05T05:14:04.949Z,6.46
2019-01-05T05:15:04.960Z,6.61
2019-01-05T05:16:04.930Z,6.61
2019-01-05T05:17:04.928Z,6.59
2019-01-05T05:18:04.907Z,6.49
2019-01-05T05:19:04.894Z,6.66
2019-01-05T05:20:04.883Z,6.59
2019-01-05T05:21:04.874Z,6.71
2019-01-05T05:22:04.860Z,6.70
2019-01-05T05:23:04.851Z,6.66
2019-01-05T05:24:04.841Z,6.61
2019-01-05T05:25:04.832Z,6.70
2019-01-05T05:26:04.819Z,6.59
2019-01-05T05:27:04.806Z,6.66
2019-01-05T05:28:04.810Z,6.58
2019-01-05T05:29:04.789Z,6.58
2019-01-05T05:30:04.783Z,6.59
2019-01-05T05:31:04.771Z,6.66
2019-01-05T05:32:04.756Z,6.66
2019-01-05T05:33:04.748Z,6.64
2019-01-05T05:34:04.730Z,6.66
2019-01-05T05:35:04.742Z,6.70
2019-01-05T05:36:04.717Z,6.64
2019-01-05T05:37:04.701Z,6.64
2019-01-05T05:38:04.702Z,6.70
2019-01-05T05:39:04.676Z,6.67
2019-01-05T05:40:04.671Z,6.69
2019-01-05T05:41:04.658Z,6.59
2019-01-05T05:42:04.661Z,6.62
2019-01-05T05:43:04.631Z,6.66
2019-01-05T05:44:04.621Z,6.71
2019-01-05T05:45:04.613Z,6.56
2019-01-05T05:46:04.602Z,6.70
2019-01-05T05:47:04.589Z,6.58
2019-01-05T05:48:04.582Z,6.58
2019-01-05T05:49:04.572Z,6.76
2019-01-05T05:50:04.555Z,6.80
2019-01-05T05:51:04.552Z,6.67
2019-01-05T05:52:04.538Z,6.71
2019-01-05T05:53:04.524Z,6.62
2019-01-05T05:54:04.530Z,6.67
2019-01-05T05:55:04.500Z,6.67
2019-01-05T05:56:04.493Z,6.73
2019-01-05T05:57:04.476Z,6.61
2019-01-05T05:58:04.471Z,6.61
2019-01-05T05:59:04.469Z,6.74
2019-01-05T06:00:04.447Z,6.59
2019-01-05T06:01:04.463Z,6.77
2019-01-05T06:02:04.424Z,6.73
2019-01-05T06:03:04.415Z,6.77
2019-01-05T06:04:04.411Z,6.64
2019-01-05T06:05:04.396Z,6.69
2019-01-05T06:06:04.381Z,6.67
2019-01-05T06:07:04.380Z,6.69
2019-01-05T06:08:04.357Z,6.59
2019-01-05T06:09:04.348Z,6.76
2019-01-05T06:10:04.343Z,6.59
2019-01-05T06:11:04.323Z,6.76
2019-01-05T06:12:04.317Z,6.64
2019-01-05T06:13:04.306Z,6.70
2019-01-05T06:14:04.318Z,6.69
2019-01-05T06:15:04.282Z,6.81
2019-01-05T06:16:04.269Z,6.76
2019-01-05T06:17:04.259Z,6.84
2019-01-05T06:18:04.253Z,6.73
2019-01-05T06:19:04.235Z,6.80
2019-01-05T06:20:04.226Z,6.66
2019-01-05T06:21:04.218Z,6.66
2019-01-05T06:22:04.204Z,6.79
2019-01-05T06:23:04.204Z,6.74
2019-01-05T06:24:04.181Z,6.80
2019-01-05T06:25:04.174Z,6.76
2019-01-05T06:26:04.163Z,6.77
2019-01-05T06:27:04.172Z,6.77
2019-01-05T06:28:04.144Z,6.77
2019-01-05T06:29:04.131Z,6.79
2019-01-05T06:30:04.117Z,6.77
2019-01-05T06:31:04.104Z,6.77
2019-01-05T06:32:04.099Z,6.74
2019-01-05T06:33:04.090Z,6.80
2019-01-05T06:34:04.080Z,6.70
2019-01-05T06:35:04.066Z,6.76
2019-01-05T06:36:04.054Z,6.74
2019-01-05T06:37:04.041Z,6.80
2019-01-05T06:38:04.029Z,6.73
2019-01-05T06:39:04.019Z,6.76
2019-01-05T06:40:04.016Z,6.73
2019-01-05T06:41:03.997Z,6.81
2019-01-05T06:42:03.989Z,6.74
2019-01-05T06:43:03.976Z,6.74
2019-01-05T06:44:03.968Z,6.74
2019-01-05T06:45:03.953Z,6.73
2019-01-05T06:46:03.950Z,6.79
2019-01-05T06:47:03.934Z,6.76
2019-01-05T06:48:03.935Z,6.88
2019-01-05T06:49:03.912Z,6.85
2019-01-05T06:50:03.910Z,6.74
2019-01-05T06:51:03.892Z,6.77
2019-01-05T06:52:03.876Z,6.76
2019-01-05T06:53:03.864Z,6.92
2019-01-05T06:54:03.857Z,6.71
2019-01-05T06:55:03.850Z,6.74
2019-01-05T06:56:03.839Z,6.73
2019-01-05T06:57:03.827Z,6.79
2019-01-05T06:58:03.810Z,6.85
2019-01-05T06:59:03.809Z,6.81
2019-01-05T07:00:03.790Z,6.85
2019-01-05T07:01:03.781Z,6.81
2019-01-05T07:02:03.772Z,6.84
2019-01-05T07:03:03.773Z,6.91
2019-01-05T07:04:03.752Z,6.87
2019-01-05T07:05:03.741Z,6.88
2019-01-05T07:06:03.732Z,6.91
2019-01-05T07:07:03.724Z,6.80
2019-01-05T07:08:03.715Z,6.87
2019-01-05T07:09:03.698Z,6.92
2019-01-05T07:10:03.679Z,6.84
2019-01-05T07:11:03.672Z,6.88
2019-01-05T07:12:03.660Z,6.88
2019-01-05T07:13:03.663Z,6.98
2019-01-05T07:14:03.650Z,6.97
2019-01-05T07:15:03.625Z,6.88
2019-01-05T07:16:03.612Z,6.80
2019-01-05T07:17:03.611Z,6.98
2019-01-05T07:18:03.599Z,6.91
2019-01-05T07:19:03.587Z,6.94
2019-01-05T07:20:03.576Z,6.92
2019-01-05T07:21:03.562Z,6.85
2019-01-05T07:22:03.551Z,6.94
2019-01-05T07:23:03.539Z,6.94
2019-01-05T07:24:03.539Z,6.95
2019-01-05T07:25:03.519Z,6.97
2019-01-05T07:26:03.512Z,6.94
2019-01-05T07:27:03.496Z,6.95
2019-01-05T07:28:03.485Z,6.99
2019-01-05T07:29:03.477Z,6.87
2019-01-05T07:30:03.459Z,6.88
2019-01-05T07:31:03.464Z,6.89
2019-01-05T07:32:03.444Z,6.94
2019-01-05T07:33:03.429Z,6.94
2019-01-05T07:34:03.424Z,6.89
2019-01-05T07:35:03.409Z,6.94
2019-01-05T07:36:03.410Z,6.92
2019-01-05T07:37:03.399Z,6.91
2019-01-05T07:38:03.374Z,6.94
2019-01-05T07:39:03.373Z,6.89
2019-01-05T07:40:03.351Z,6.91
2019-01-05T07:41:03.352Z,6.92
2019-01-05T07:42:03.347Z,6.97
2019-01-05T07:43:03.321Z,6.87
2019-01-05T07:44:03.309Z,6.99
2019-01-05T07:45:03.305Z,6.95
2019-01-05T07:46:03.285Z,6.92
2019-01-05T07:47:03.277Z,6.92
2019-01-05T07:48:03.288Z,6.95
2019-01-05T07:49:03.268Z,6.87
2019-01-05T07:50:03.243Z,6.98
2019-01-05T07:51:03.234Z,6.91
2019-01-05T07:52:03.219Z,6.92
2019-01-05T07:53:03.209Z,6.85
2019-01-05T07:54:03.203Z,6.91
2019-01-05T07:55:03.185Z,6.97
2019-01-05T07:56:03.186Z,6.88
2019-01-05T07:57:03.169Z,6.81
2019-01-05T07:58:03.159Z,6.94
2019-01-05T07:59:03.145Z,6.88
2019-01-05T08:00:03.136Z,6.92
2019-01-05T08:01:03.122Z,6.91
2019-01-05T08:02:03.139Z,6.92
2019-01-05T08:03:03.102Z,6.98
2019-01-05T08:04:03.091Z,6.95
2019-01-05T08:05:03.079Z,6.95
2019-01-05T08:06:03.067Z,6.91
2019-01-05T08:07:03.055Z,6.85
2019-01-05T08:08:03.050Z,6.91
2019-01-05T08:09:03.036Z,6.94
2019-01-05T08:10:03.023Z,6.91
2019-01-05T08:11:03.016Z,6.94
2019-01-05T08:12:03.024Z,6.95
2019-01-05T08:13:02.991Z,6.91
2019-01-05T08:14:02.979Z,6.97
2019-01-05T08:15:02.975Z,6.92
2019-01-05T08:16:02.962Z,6.95
2019-01-05T08:17:02.954Z,6.92
2019-01-05T08:18:02.939Z,6.94
2019-01-05T08:19:02.928Z,6.95
2019-01-05T08:20:02.916Z,6.97
2019-01-05T08:21:02.908Z,6.97
2019-01-05T08:22:02.893Z,6.99
2019-01-05T08:23:02.884Z,6.98
2019-01-05T08:24:02.870Z,6.99
2019-01-05T08:25:02.870Z,6.97
2019-01-05T08:26:02.856Z,6.99
2019-01-05T08:27:02.844Z,7.09
2019-01-05T08:28:02.872Z,7.03
2019-01-05T08:29:02.818Z,7.03
2019-01-05T08:30:03.346Z,6.99
2019-01-05T08:31:02.797Z,7.10
2019-01-05T08:32:02.783Z,6.99
2019-01-05T08:33:02.780Z,7.05
2019-01-05T08:34:02.768Z,7.07
2019-01-05T08:35:02.756Z,7.07
2019-01-05T08:36:02.742Z,7.06
2019-01-05T08:37:02.727Z,7.03
2019-01-05T08:38:02.736Z,7.13
2019-01-05T08:39:02.713Z,7.05
2019-01-05T08:40:02.695Z,7.03
2019-01-05T08:41:02.688Z,7.07
2019-01-05T08:42:02.675Z,7.12
2019-01-05T08:43:02.666Z,7.09
2019-01-05T08:44:02.662Z,7.13
2019-01-05T08:45:02.654Z,7.10
2019-01-05T08:46:02.632Z,7.25
2019-01-05T08:47:02.628Z,7.25
2019-01-05T08:48:02.624Z,7.25
2019-01-05T08:49:02.602Z,7.28
2019-01-05T08:50:02.591Z,7.27
2019-01-05T08:51:02.577Z,7.37
2019-01-05T08:52:02.567Z,7.32
2019-01-05T08:53:02.556Z,7.31
2019-01-05T08:54:02.549Z,7.32
2019-01-05T08:55:02.529Z,7.35
2019-01-05T08:56:02.527Z,7.37
2019-01-05T08:57:02.508Z,7.31
2019-01-05T08:58:02.504Z,7.37
2019-01-05T08:59:02.488Z,7.27
2019-01-05T09:00:02.480Z,7.24
2019-01-05T09:01:02.470Z,7.28
2019-01-05T09:02:02.458Z,7.24
2019-01-05T09:03:02.446Z,7.27
2019-01-05T09:04:02.434Z,7.23
2019-01-05T09:05:02.426Z,7.17
2019-01-05T09:06:02.424Z,7.21
2019-01-05T09:07:02.424Z,7.21
2019-01-05T09:08:02.391Z,7.21
2019-01-05T09:09:02.413Z,7.17
2019-01-05T09:10:02.375Z,7.23
2019-01-05T09:11:02.358Z,7.17
2019-01-05T09:12:02.344Z,7.20
2019-01-05T09:13:02.335Z,7.17
2019-01-05T09:14:02.329Z,7.23
2019-01-05T09:15:02.316Z,7.17
2019-01-05T09:16:02.307Z,7.23
2019-01-05T09:17:02.290Z,7.17
2019-01-05T09:18:02.280Z,7.23
2019-01-05T09:19:02.268Z,7.24
2019-01-05T09:20:02.263Z,7.20
2019-01-05T09:21:02.255Z,7.23
2019-01-05T09:22:02.243Z,7.28
2019-01-05T09:23:02.238Z,7.20
2019-01-05T09:24:02.219Z,7.43
2019-01-05T09:25:02.206Z,7.72
2019-01-05T09:26:02.192Z,7.89
2019-01-05T09:27:02.182Z,8.08
2019-01-05T09:28:02.171Z,8.05
2019-01-05T09:29:02.162Z,8.08
2019-01-05T09:30:02.153Z,8.18
2019-01-05T09:31:02.150Z,8.12
2019-01-05T09:32:02.127Z,8.16
2019-01-05T09:33:02.136Z,8.41
2019-01-05T09:34:02.110Z,8.66
2019-01-05T09:35:02.098Z,8.77
2019-01-05T09:36:02.087Z,8.61
2019-01-05T09:37:02.079Z,8.58
2019-01-05T09:38:02.061Z,8.53
2019-01-05T09:39:02.056Z,8.48
2019-01-05T09:40:02.046Z,8.40
2019-01-05T09:41:02.036Z,8.37
2019-01-05T09:42:02.020Z,8.28
2019-01-05T09:43:02.010Z,8.18
2019-01-05T09:44:02.001Z,8.20
2019-01-05T09:45:01.983Z,8.18
2019-01-05T09:46:01.982Z,8.29
2019-01-05T09:47:01.970Z,8.36
2019-01-05T09:48:01.954Z,8.26
2019-01-05T09:49:01.948Z,8.25
2019-01-05T09:50:01.935Z,8.29
2019-01-05T09:51:01.922Z,8.38
2019-01-05T09:52:01.914Z,8.44
2019-01-05T09:53:01.900Z,8.40
2019-01-05T09:54:01.890Z,8.38
2019-01-05T09:55:01.878Z,8.28
2019-01-05T09:56:01.866Z,8.29
2019-01-05T09:57:01.855Z,8.23
2019-01-05T09:58:01.846Z,8.25
2019-01-05T09:59:01.837Z,8.18
2019-01-05T10:00:01.823Z,8.04
2019-01-05T10:01:01.814Z,8.23
2019-01-05T10:02:01.804Z,8.53
2019-01-05T10:03:01.790Z,8.58
2019-01-05T10:04:01.790Z,8.50
2019-01-05T10:05:01.766Z,8.47
2019-01-05T10:06:01.763Z,8.47
2019-01-05T10:07:01.746Z,8.56
2019-01-05T10:08:01.741Z,8.52
2019-01-05T10:09:01.746Z,8.61
2019-01-05T10:10:01.713Z,8.73
2019-01-05T10:11:01.707Z,8.65
2019-01-05T10:12:01.692Z,8.68
2019-01-05T10:13:01.690Z,8.66
2019-01-05T10:14:01.678Z,8.53
2019-01-05T10:15:01.661Z,8.44
2019-01-05T10:16:01.648Z,8.61
2019-01-05T10:17:01.642Z,8.73
2019-01-05T10:18:01.953Z,8.55
2019-01-05T10:19:01.616Z,8.68
2019-01-05T10:20:01.611Z,8.70
2019-01-05T10:21:01.600Z,8.63
2019-01-05T10:22:01.597Z,8.52
2019-01-05T10:23:01.574Z,8.55
2019-01-05T10:24:01.560Z,8.45
2019-01-05T10:25:01.550Z,8.71
2019-01-05T10:26:01.540Z,8.84
2019-01-05T10:27:01.530Z,9.05
2019-01-05T10:28:01.520Z,8.76
2019-01-05T10:29:01.506Z,8.77
2019-01-05T10:30:01.503Z,8.87
2019-01-05T10:31:01.492Z,9.15
2019-01-05T10:32:01.494Z,9.28
2019-01-05T10:33:01.466Z,9.31
2019-01-05T10:34:01.461Z,9.17
2019-01-05T10:35:01.448Z,9.14
2019-01-05T10:36:01.443Z,9.17
2019-01-05T10:37:01.420Z,9.21
2019-01-05T10:38:01.409Z,9.38
2019-01-05T10:39:01.401Z,9.64
2019-01-05T10:40:01.394Z,9.57
2019-01-05T10:41:01.378Z,9.56
2019-01-05T10:42:01.372Z,9.54
2019-01-05T10:43:01.356Z,9.58
2019-01-05T10:44:01.375Z,9.64
2019-01-05T10:45:01.364Z,9.50
2019-01-05T10:46:01.323Z,9.38
2019-01-05T10:47:01.318Z,9.39
2019-01-05T10:48:01.308Z,9.48
2019-01-05T10:49:01.303Z,9.47
2019-01-05T10:50:01.294Z,9.46
2019-01-05T10:51:01.274Z,9.48
2019-01-05T10:52:01.282Z,9.42
2019-01-05T10:53:01.250Z,9.47
2019-01-05T10:54:01.242Z,9.39
2019-01-05T10:55:01.248Z,9.24
2019-01-05T10:56:01.220Z,9.13
2019-01-05T10:57:01.210Z,9.02
2019-01-05T10:58:01.202Z,9.02
2019-01-05T10:59:01.194Z,8.99
2019-01-05T11:00:01.174Z,8.95
2019-01-05T11:01:01.161Z,8.87
2019-01-05T11:02:01.155Z,8.73
2019-01-05T11:03:01.147Z,8.74
2019-01-05T11:04:01.132Z,8.71
2019-01-05T11:05:01.123Z,8.65
2019-01-05T11:06:01.108Z,8.61
2019-01-05T11:07:01.154Z,8.59
2019-01-05T11:08:01.096Z,8.58
2019-01-05T11:09:01.082Z,8.59
2019-01-05T11:10:01.067Z,8.45
2019-01-05T11:11:01.056Z,8.50
2019-01-05T11:12:01.052Z,8.44
2019-01-05T11:13:01.114Z,8.50
2019-01-05T11:14:01.024Z,8.50
2019-01-05T11:15:01.116Z,8.45
2019-01-05T11:16:01.002Z,8.55
2019-01-05T11:17:00.992Z,8.53
2019-01-05T11:18:00.980Z,8.50
2019-01-05T11:19:00.970Z,8.50
2019-01-05T11:20:00.962Z,8.63
2019-01-05T11:21:00.959Z,8.58
2019-01-05T11:22:00.938Z,8.48
2019-01-05T11:23:01.014Z,8.47
2019-01-05T11:24:00.916Z,8.44
2019-01-05T11:25:00.907Z,8.50
2019-01-05T11:26:00.890Z,8.43
2019-01-05T11:27:00.885Z,8.36
2019-01-05T11:28:00.868Z,8.52
2019-01-05T11:29:00.862Z,8.37
2019-01-05T11:30:00.849Z,8.48
2019-01-05T11:31:00.866Z,8.52
2019-01-05T11:32:00.827Z,8.47
2019-01-05T11:33:00.814Z,8.50
2019-01-05T11:34:00.811Z,8.48
2019-01-05T11:35:00.797Z,8.48
2019-01-05T11:36:00.793Z,8.47
2019-01-05T11:37:00.773Z,8.52
2019-01-05T11:38:00.767Z,8.59
2019-01-05T11:39:00.751Z,8.52
2019-01-05T11:40:00.742Z,8.52
2019-01-05T11:41:00.742Z,8.63
2019-01-05T11:42:00.714Z,8.66
2019-01-05T11:43:00.711Z,8.62
2019-01-05T11:44:00.716Z,8.70
2019-01-05T11:45:00.690Z,8.81
2019-01-05T11:46:00.681Z,8.95
2019-01-05T11:47:00.664Z,8.83
2019-01-05T11:48:00.652Z,8.81
2019-01-05T11:49:00.640Z,8.84
2019-01-05T11:50:00.651Z,8.73
2019-01-05T11:51:00.625Z,8.70
2019-01-05T11:52:00.614Z,8.80
2019-01-05T11:53:00.598Z,8.71
2019-01-05T11:54:00.611Z,8.79
2019-01-05T11:55:00.580Z,8.68
2019-01-05T11:56:00.577Z,8.76
2019-01-05T11:57:00.556Z,8.74
2019-01-05T11:58:00.545Z,8.80
2019-01-05T11:59:00.533Z,8.73
2019-01-05T12:00:00.522Z,8.74
2019-01-05T12:01:00.514Z,8.77
2019-01-05T12:02:00.639Z,8.74
2019-01-05T12:03:00.493Z,8.74
2019-01-05T12:04:00.501Z,8.77
2019-01-05T12:05:00.478Z,8.81
2019-01-05T12:06:00.468Z,8.81
2019-01-05T12:07:00.456Z,8.71
2019-01-05T12:08:00.449Z,8.77
2019-01-05T12:09:00.426Z,8.74
2019-01-05T12:10:00.414Z,8.76
2019-01-05T12:11:00.412Z,8.76
2019-01-05T12:12:00.392Z,8.76
2019-01-05T12:13:00.383Z,8.58
2019-01-05T12:14:00.378Z,8.56
2019-01-05T12:15:00.363Z,8.44
2019-01-05T12:16:00.466Z,8.48
2019-01-05T12:17:00.406Z,8.40
2019-01-05T12:18:00.335Z,8.36
2019-01-05T12:19:01.310Z,8.37
2019-01-05T12:20:00.311Z,8.37
2019-01-05T12:21:00.299Z,8.38
2019-01-05T12:22:00.285Z,8.34
2019-01-05T12:23:00.268Z,8.30
2019-01-05T12:24:00.262Z,8.33
2019-01-05T12:25:00.255Z,8.15
2019-01-05T12:26:00.244Z,8.22
2019-01-05T12:27:00.229Z,8.11
2019-01-05T12:28:00.228Z,8.20
2019-01-05T12:29:00.210Z,8.22
2019-01-05T12:30:00.221Z,8.20
2019-01-05T12:31:00.188Z,8.18
2019-01-05T12:32:00.179Z,8.22
2019-01-05T12:33:00.189Z,8.26
2019-01-05T12:34:00.584Z,8.19
2019-01-05T12:35:00.245Z,8.16
2019-01-05T12:36:00.134Z,8.18
2019-01-05T12:37:00.128Z,8.18
2019-01-05T12:38:00.108Z,8.07
2019-01-05T12:39:00.102Z,8.16
2019-01-05T12:40:00.158Z,8.16
2019-01-05T12:41:00.081Z,8.16
2019-01-05T12:42:00.070Z,8.18
2019-01-05T12:43:00.083Z,8.16
2019-01-05T12:44:00.056Z,8.05
2019-01-05T12:45:00.043Z,8.07
2019-01-05T12:46:00.023Z,8.02
2019-01-05T12:47:00.014Z,8.05
2019-01-05T12:48:00.002Z,7.98
2019-01-05T12:48:59.998Z,8.10
2019-01-05T12:49:59.984Z,8.08
2019-01-05T12:50:59.969Z,8.04
2019-01-05T12:51:59.964Z,8.10
2019-01-05T12:52:59.990Z,8.12
2019-01-05T12:53:59.941Z,8.15
2019-01-05T12:54:59.929Z,8.04
2019-01-05T12:55:59.919Z,8.12
2019-01-05T12:56:59.909Z,8.10
2019-01-05T12:57:59.901Z,8.08
2019-01-05T12:58:59.890Z,8.08
2019-01-05T12:59:59.893Z,8.00
2019-01-05T13:00:59.869Z,8.07
2019-01-05T13:01:59.856Z,8.01
2019-01-05T13:02:59.854Z,8.00
2019-01-05T13:03:59.835Z,8.00
2019-01-05T13:04:59.825Z,8.00
2019-01-05T13:05:59.830Z,7.95
2019-01-05T13:06:59.806Z,7.97
2019-01-05T13:07:59.794Z,8.01
2019-01-05T13:08:59.780Z,8.00
2019-01-05T13:09:59.774Z,7.93
2019-01-05T13:10:59.759Z,8.00
2019-01-05T13:11:59.747Z,8.01
2019-01-05T13:12:59.739Z,7.98
2019-01-05T13:13:59.735Z,8.04
2019-01-05T13:14:59.717Z,7.95
2019-01-05T13:15:59.704Z,8.02
2019-01-05T13:16:59.770Z,7.97
2019-01-05T13:17:59.688Z,7.92